CAO91L ZSNJ-ZSQD
Flight info
| Callsign | CAO91L |
|---|---|
| Flight time | N/A |
| Altitude | 29100 |
| Route | OF52X OF W178 RUXEL DCT GURIL DCT MABEB |
| Aircraft | B77L/H-SDE1E2E3FGHIJ2J3J4J5M1RWXY/LB1D1 |
Departure
| Time | N/A |
|---|---|
| Airport | Nanjing Lukou International Airport (ZSNJ) |
Arrival
| Time | 2026-04-27 06:12 |
|---|---|
| Airport | Qingdao Jiaodong International Airport (ZSQD) |
| Time | Latitude | Longitude | Altitude | Speed | Heading |
|---|---|---|---|---|---|
| 2026-04-27 05:47 | 34.58137 | 118.88959 | 30945 ft | 474 kts | 10° |
| 2026-04-27 05:47 | 34.61162 | 118.90677 | 30962 ft | 486 kts | 20° |
| 2026-04-27 05:48 | 34.66627 | 118.95699 | 30868 ft | 491 kts | 31° |
| 2026-04-27 05:48 | 34.69272 | 118.98420 | 30692 ft | 506 kts | 31° |
| 2026-04-27 05:48 | 34.71953 | 119.01187 | 30223 ft | 514 kts | 32° |
| 2026-04-27 05:48 | 34.74671 | 119.03991 | 29764 ft | 508 kts | 31° |
| 2026-04-27 05:49 | 34.77354 | 119.06736 | 29289 ft | 502 kts | 31° |
| 2026-04-27 05:49 | 34.80110 | 119.09509 | 28845 ft | 524 kts | 31° |
| 2026-04-27 05:49 | 34.82992 | 119.12379 | 28356 ft | 546 kts | 31° |
| 2026-04-27 05:49 | 34.85982 | 119.15364 | 27954 ft | 559 kts | 32° |
| 2026-04-27 05:50 | 34.88948 | 119.18352 | 27399 ft | 544 kts | 32° |
| 2026-04-27 05:50 | 34.91844 | 119.21286 | 26521 ft | 538 kts | 32° |
| 2026-04-27 05:50 | 34.94713 | 119.24193 | 25832 ft | 540 kts | 33° |
| 2026-04-27 05:50 | 34.97592 | 119.27108 | 25321 ft | 531 kts | 33° |
| 2026-04-27 05:51 | 35.00408 | 119.29962 | 24965 ft | 516 kts | 33° |
| 2026-04-27 05:51 | 35.03123 | 119.32715 | 24779 ft | 505 kts | 33° |
| 2026-04-27 05:51 | 35.05805 | 119.35423 | 24558 ft | 506 kts | 33° |
| 2026-04-27 05:51 | 35.08544 | 119.38193 | 24153 ft | 504 kts | 33° |
| 2026-04-27 05:52 | 35.11204 | 119.40879 | 23633 ft | 501 kts | 33° |
| 2026-04-27 05:52 | 35.13874 | 119.43576 | 23077 ft | 493 kts | 33° |
| 2026-04-27 05:52 | 35.16517 | 119.46257 | 22495 ft | 488 kts | 33° |
| 2026-04-27 05:52 | 35.19116 | 119.48901 | 21827 ft | 484 kts | 33° |
| 2026-04-27 05:53 | 35.21687 | 119.51517 | 21200 ft | 478 kts | 33° |
| 2026-04-27 05:53 | 35.24226 | 119.54107 | 20637 ft | 471 kts | 33° |
| 2026-04-27 05:53 | 35.26694 | 119.56626 | 20091 ft | 463 kts | 33° |
| 2026-04-27 05:53 | 35.29181 | 119.59157 | 19801 ft | 467 kts | 33° |
| 2026-04-27 05:54 | 35.31627 | 119.61655 | 19215 ft | 447 kts | 33° |
| 2026-04-27 05:54 | 35.33956 | 119.64042 | 18568 ft | 428 kts | 33° |
| 2026-04-27 05:54 | 35.36243 | 119.66380 | 18270 ft | 419 kts | 33° |
| 2026-04-27 05:54 | 35.38429 | 119.68613 | 17878 ft | 399 kts | 33° |
| 2026-04-27 05:55 | 35.40518 | 119.70745 | 17428 ft | 382 kts | 33° |
| 2026-04-27 05:55 | 35.42525 | 119.72801 | 16998 ft | 372 kts | 33° |
| 2026-04-27 05:55 | 35.44478 | 119.74796 | 16499 ft | 370 kts | 33° |
| 2026-04-27 05:55 | 35.46470 | 119.76812 | 15923 ft | 372 kts | 33° |
| 2026-04-27 05:56 | 35.48471 | 119.78831 | 15403 ft | 372 kts | 33° |
| 2026-04-27 05:56 | 35.50445 | 119.80829 | 15165 ft | 362 kts | 33° |
| 2026-04-27 05:56 | 35.52363 | 119.82778 | 14980 ft | 356 kts | 34° |
| 2026-04-27 05:56 | 35.54273 | 119.84715 | 14793 ft | 356 kts | 33° |
| 2026-04-27 05:57 | 35.56195 | 119.86658 | 14442 ft | 359 kts | 34° |
| 2026-04-27 05:57 | 35.58112 | 119.88596 | 14018 ft | 361 kts | 34° |
| 2026-04-27 05:57 | 35.59421 | 119.89924 | 13687 ft | 361 kts | 34° |
| 2026-04-27 05:57 | 35.61983 | 119.92525 | 13089 ft | 357 kts | 35° |
| 2026-04-27 05:58 | 35.63878 | 119.94454 | 12740 ft | 352 kts | 35° |
| 2026-04-27 05:58 | 35.65747 | 119.96356 | 12376 ft | 346 kts | 35° |
| 2026-04-27 05:58 | 35.66972 | 119.97607 | 12147 ft | 342 kts | 35° |
| 2026-04-27 05:58 | 35.68790 | 119.99462 | 11793 ft | 338 kts | 35° |
| 2026-04-27 05:59 | 35.70597 | 120.01308 | 11446 ft | 337 kts | 36° |
| 2026-04-27 05:59 | 35.72401 | 120.03147 | 11097 ft | 336 kts | 36° |
| 2026-04-27 05:59 | 35.74197 | 120.04985 | 10747 ft | 336 kts | 36° |
| 2026-04-27 05:59 | 35.75992 | 120.06821 | 10396 ft | 333 kts | 36° |
| 2026-04-27 06:00 | 35.79574 | 120.10480 | 9703 ft | 335 kts | 37° |
| 2026-04-27 06:00 | 35.81362 | 120.12312 | 9350 ft | 335 kts | 37° |
| 2026-04-27 06:00 | 35.83153 | 120.14148 | 8847 ft | 330 kts | 37° |
| 2026-04-27 06:01 | 35.84866 | 120.15907 | 8193 ft | 317 kts | 37° |
| 2026-04-27 06:01 | 35.86541 | 120.17626 | 7576 ft | 310 kts | 37° |
| 2026-04-27 06:01 | 35.88186 | 120.19309 | 6959 ft | 304 kts | 37° |
| 2026-04-27 06:01 | 35.89795 | 120.20958 | 6328 ft | 298 kts | 37° |
| 2026-04-27 06:02 | 35.91377 | 120.22583 | 5696 ft | 294 kts | 37° |
| 2026-04-27 06:02 | 35.92960 | 120.24194 | 5067 ft | 292 kts | 37° |
| 2026-04-27 06:02 | 35.94495 | 120.25782 | 4424 ft | 281 kts | 38° |
| 2026-04-27 06:02 | 35.96029 | 120.27133 | 4000 ft | 259 kts | 18° |
| 2026-04-27 06:03 | 35.97670 | 120.27433 | 3810 ft | 223 kts | 345° |
| 2026-04-27 06:03 | 35.99068 | 120.26981 | 3810 ft | 201 kts | 332° |
| 2026-04-27 06:03 | 36.00285 | 120.26236 | 3839 ft | 188 kts | 317° |
| 2026-04-27 06:03 | 36.01228 | 120.25176 | 3818 ft | 186 kts | 311° |
| 2026-04-27 06:04 | 36.02179 | 120.24085 | 3810 ft | 186 kts | 311° |
| 2026-04-27 06:04 | 36.03131 | 120.23017 | 3808 ft | 183 kts | 311° |
| 2026-04-27 06:04 | 36.04076 | 120.21957 | 3811 ft | 182 kts | 311° |
| 2026-04-27 06:04 | 36.05007 | 120.20903 | 3814 ft | 181 kts | 311° |
| 2026-04-27 06:05 | 36.05941 | 120.19853 | 3809 ft | 182 kts | 315° |
| 2026-04-27 06:05 | 36.07078 | 120.19138 | 3846 ft | 187 kts | 332° |
| 2026-04-27 06:05 | 36.08307 | 120.18545 | 3835 ft | 195 kts | 333° |
| 2026-04-27 06:05 | 36.09585 | 120.17987 | 3810 ft | 193 kts | 334° |
| 2026-04-27 06:06 | 36.10850 | 120.17472 | 3808 ft | 189 kts | 335° |
| 2026-04-27 06:06 | 36.12109 | 120.16970 | 3813 ft | 191 kts | 335° |
| 2026-04-27 06:06 | 36.13387 | 120.16467 | 3820 ft | 193 kts | 335° |
| 2026-04-27 06:06 | 36.14668 | 120.15968 | 3813 ft | 193 kts | 335° |
| 2026-04-27 06:07 | 36.15954 | 120.15461 | 3717 ft | 197 kts | 336° |
| 2026-04-27 06:07 | 36.17230 | 120.14965 | 3447 ft | 184 kts | 335° |
| 2026-04-27 06:07 | 36.18400 | 120.14510 | 3200 ft | 169 kts | 335° |
| 2026-04-27 06:07 | 36.19468 | 120.14091 | 2985 ft | 152 kts | 334° |
| 2026-04-27 06:08 | 36.20468 | 120.13698 | 2833 ft | 151 kts | 334° |
| 2026-04-27 06:08 | 36.21476 | 120.13299 | 2624 ft | 153 kts | 335° |
| 2026-04-27 06:08 | 36.22487 | 120.12906 | 2419 ft | 153 kts | 336° |
| 2026-04-27 06:08 | 36.23500 | 120.12507 | 2207 ft | 153 kts | 335° |
| 2026-04-27 06:09 | 36.24516 | 120.12113 | 2006 ft | 153 kts | 336° |
| 2026-04-27 06:09 | 36.25534 | 120.11711 | 1798 ft | 154 kts | 336° |
| 2026-04-27 06:09 | 36.26553 | 120.11311 | 1596 ft | 153 kts | 337° |
| 2026-04-27 06:09 | 36.27567 | 120.10913 | 1402 ft | 154 kts | 337° |
| 2026-04-27 06:10 | 36.28584 | 120.10516 | 1198 ft | 154 kts | 338° |
| 2026-04-27 06:10 | 36.29600 | 120.10114 | 993 ft | 153 kts | 337° |
| 2026-04-27 06:10 | 36.30610 | 120.09722 | 784 ft | 151 kts | 337° |
| 2026-04-27 06:10 | 36.31607 | 120.09326 | 585 ft | 150 kts | 338° |
| 2026-04-27 06:11 | 36.32602 | 120.08942 | 381 ft | 149 kts | 340° |
| 2026-04-27 06:11 | 36.33591 | 120.08554 | 195 ft | 149 kts | 340° |
| 2026-04-27 06:11 | 36.34578 | 120.08159 | 51 ft | 149 kts | 339° |
| 2026-04-27 06:11 | 36.35496 | 120.07796 | 42 ft | 127 kts | 344° |
| 2026-04-27 06:12 | 36.36196 | 120.07521 | 44 ft | 68 kts | 342° |
| 2026-04-27 06:12 | 36.36516 | 120.07398 | 45 ft | 37 kts | 342° |
| 2026-04-27 06:12 | 36.36704 | 120.07323 | 43 ft | 15 kts | 348° |
| 2026-04-27 06:12 | 36.36782 | 120.07391 | 40 ft | 15 kts | 72° |
| 2026-04-27 06:13 | 36.36793 | 120.07441 | 43 ft | 0 kts | 73° |